createdAt,value
2022-10-08T00:01:23.060Z,16.73
2022-10-08T00:03:55.234Z,17.95
2022-10-08T00:08:58.158Z,13.57
2022-10-08T00:11:29.463Z,10.20
2022-10-08T00:13:57.973Z,11.48
2022-10-08T00:16:33.797Z,8.13
2022-10-08T00:19:12.281Z,10.23
2022-10-08T00:21:42.291Z,12.13
2022-10-08T00:24:16.684Z,11.85
2022-10-08T00:26:45.654Z,8.43
2022-10-08T00:29:16.859Z,11.38
2022-10-08T00:31:48.286Z,10.73
2022-10-08T00:34:19.771Z,10.13
2022-10-08T00:36:52.403Z,10.07
2022-10-08T00:39:22.607Z,8.65
2022-10-08T00:41:53.839Z,10.43
2022-10-08T00:44:52.804Z,10.73
2022-10-08T00:47:25.204Z,10.82
2022-10-08T00:49:58.388Z,9.32
2022-10-08T00:52:29.445Z,12.65
2022-10-08T00:54:58.869Z,10.75
2022-10-08T00:57:27.429Z,14.02
2022-10-08T00:59:55.890Z,12.60
2022-10-08T01:02:24.150Z,19.60
2022-10-08T01:04:52.228Z,13.52
2022-10-08T01:07:49.394Z,17.02
2022-10-08T01:10:42.571Z,11.77
2022-10-08T01:13:44.313Z,13.10
2022-10-08T01:16:34.768Z,13.53
2022-10-08T01:19:21.500Z,9.50
2022-10-08T01:22:21.040Z,12.35
2022-10-08T01:24:54.225Z,10.40
2022-10-08T01:27:22.406Z,13.98
2022-10-08T01:29:51.241Z,13.05
2022-10-08T01:32:23.024Z,12.18
2022-10-08T01:34:56.353Z,12.02
2022-10-08T01:37:32.445Z,9.95
2022-10-08T01:40:05.500Z,10.82
2022-10-08T01:42:36.222Z,12.07
2022-10-08T01:45:23.220Z,15.93
2022-10-08T01:47:54.904Z,13.27
2022-10-08T01:50:32.322Z,13.98
2022-10-08T01:53:05.386Z,13.25
2022-10-08T01:55:40.487Z,12.07
2022-10-08T01:58:16.989Z,14.45
2022-10-08T02:00:49.245Z,11.15
2022-10-08T02:03:17.763Z,15.73
2022-10-08T02:05:51.115Z,18.83
2022-10-08T02:08:19.643Z,11.95
2022-10-08T02:10:47.774Z,20.77
2022-10-08T02:13:15.960Z,16.10
2022-10-08T02:16:05.600Z,22.83
2022-10-08T02:18:48.213Z,19.67
2022-10-08T02:21:22.887Z,24.67
2022-10-08T02:23:56.950Z,19.27
2022-10-08T02:26:47.603Z,29.83
2022-10-08T02:29:48.577Z,24.75
2022-10-08T02:32:47.512Z,30.05
2022-10-08T02:35:28.577Z,25.85
2022-10-08T02:38:04.667Z,19.42
2022-10-08T02:40:34.762Z,24.40
2022-10-08T02:43:09.972Z,21.98
2022-10-08T02:45:51.035Z,25.20
2022-10-08T02:48:29.820Z,25.00
2022-10-08T02:51:08.330Z,22.80
2022-10-08T02:53:39.823Z,23.73
2022-10-08T02:56:26.039Z,20.73
2022-10-08T02:58:55.355Z,25.83
2022-10-08T03:01:34.300Z,19.05
2022-10-08T03:04:41.274Z,27.63
2022-10-08T03:07:09.753Z,23.67
2022-10-08T03:09:40.227Z,26.95
2022-10-08T03:12:08.784Z,18.98
2022-10-08T03:14:40.448Z,20.55
2022-10-08T03:17:11.142Z,18.08
2022-10-08T03:19:39.441Z,22.65
2022-10-08T03:22:08.638Z,18.88
2022-10-08T03:24:37.478Z,17.60
2022-10-08T03:27:06.001Z,16.50
2022-10-08T03:29:34.104Z,23.10
2022-10-08T03:32:02.278Z,23.38
2022-10-08T03:34:30.534Z,22.48
2022-10-08T03:36:58.766Z,19.33
2022-10-08T03:39:26.964Z,19.83
2022-10-08T03:41:54.948Z,25.02
2022-10-08T03:44:23.174Z,18.48
2022-10-08T03:46:51.405Z,19.80
2022-10-08T03:49:19.538Z,18.75
2022-10-08T03:51:47.578Z,22.17
2022-10-08T03:54:15.825Z,22.67
2022-10-08T03:56:43.938Z,25.02
2022-10-08T03:59:12.256Z,22.17
2022-10-08T04:01:40.493Z,28.52
2022-10-08T04:04:08.776Z,20.88
2022-10-08T04:06:37.025Z,26.63
2022-10-08T04:09:05.058Z,26.92
2022-10-08T04:11:33.338Z,24.75
2022-10-08T04:14:01.560Z,22.60
2022-10-08T04:16:29.734Z,22.48
2022-10-08T04:18:58.001Z,24.20
2022-10-08T04:21:26.103Z,23.30
2022-10-08T04:23:54.419Z,23.58
2022-10-08T04:26:22.619Z,27.77
2022-10-08T04:28:50.842Z,24.58
2022-10-08T04:31:21.153Z,30.80
2022-10-08T04:33:50.105Z,28.38
2022-10-08T04:36:21.283Z,24.58
2022-10-08T04:38:50.510Z,31.13
2022-10-08T04:41:24.281Z,28.02
2022-10-08T04:43:54.338Z,23.77
2022-10-08T04:46:22.961Z,28.15
2022-10-08T04:48:53.887Z,26.25
2022-10-08T04:51:24.099Z,25.15
2022-10-08T04:53:53.070Z,31.63
2022-10-08T04:56:23.897Z,35.58
2022-10-08T04:58:52.680Z,26.95
2022-10-08T05:01:21.923Z,29.63
2022-10-08T05:03:54.377Z,36.92
2022-10-08T05:06:25.358Z,38.30
2022-10-08T05:08:53.791Z,39.78
2022-10-08T05:11:25.391Z,37.33
2022-10-08T05:13:55.143Z,35.95
2022-10-08T05:16:24.734Z,37.95
2022-10-08T05:18:53.187Z,35.85
2022-10-08T05:21:26.523Z,35.85
2022-10-08T05:24:05.061Z,40.58
2022-10-08T05:26:56.882Z,34.85
2022-10-08T05:29:24.494Z,33.78
2022-10-08T05:31:52.730Z,32.63
2022-10-08T05:34:20.757Z,36.80
2022-10-08T05:36:48.866Z,33.17
2022-10-08T05:39:17.285Z,33.00
2022-10-08T05:41:45.495Z,32.20
2022-10-08T05:44:13.750Z,32.72
2022-10-08T05:46:41.926Z,29.85
2022-10-08T05:49:22.513Z,31.95
2022-10-08T05:51:51.522Z,32.15
2022-10-08T05:54:20.226Z,33.13
2022-10-08T05:56:48.700Z,27.15
2022-10-08T05:59:23.096Z,31.42
2022-10-08T06:01:52.237Z,25.63
2022-10-08T06:04:20.423Z,37.60
2022-10-08T06:06:48.990Z,36.10
2022-10-08T06:09:20.547Z,34.38
2022-10-08T06:11:49.915Z,46.38
2022-10-08T06:14:18.212Z,36.08
2022-10-08T06:16:46.790Z,43.20
2022-10-08T06:19:16.236Z,39.05
2022-10-08T06:21:44.377Z,35.70
2022-10-08T06:24:13.134Z,43.28
2022-10-08T06:26:42.856Z,39.83
2022-10-08T06:29:17.133Z,33.97
2022-10-08T06:31:45.922Z,36.60
2022-10-08T06:34:14.514Z,33.03
2022-10-08T06:36:42.728Z,34.35
2022-10-08T06:39:16.205Z,34.55
2022-10-08T06:41:44.781Z,31.08
2022-10-08T06:44:14.767Z,36.60
2022-10-08T06:46:43.932Z,31.20
2022-10-08T06:49:12.538Z,36.75
2022-10-08T06:51:40.900Z,42.10
2022-10-08T06:54:09.106Z,30.30
2022-10-08T06:56:38.474Z,31.60
2022-10-08T06:59:07.168Z,29.33
2022-10-08T07:01:36.063Z,33.53
2022-10-08T07:04:05.596Z,28.50
2022-10-08T07:06:33.786Z,33.45
2022-10-08T07:09:03.434Z,35.38
2022-10-08T07:11:31.927Z,25.95
2022-10-08T07:14:00.407Z,33.10
2022-10-08T07:16:29.532Z,26.77
2022-10-08T07:18:58.627Z,26.92
2022-10-08T07:21:28.413Z,31.33
2022-10-08T07:23:58.746Z,36.15
2022-10-08T07:26:29.547Z,32.03
2022-10-08T07:29:00.445Z,34.30
2022-10-08T07:31:31.762Z,31.90
2022-10-08T07:34:01.542Z,33.40
2022-10-08T07:36:30.128Z,24.63
2022-10-08T07:39:06.189Z,32.10
2022-10-08T07:41:34.773Z,31.45
2022-10-08T07:44:03.717Z,31.75
2022-10-08T07:46:34.225Z,29.58
2022-10-08T07:49:03.331Z,26.00
2022-10-08T07:51:33.011Z,26.77
2022-10-08T07:54:03.245Z,24.80
2022-10-08T07:56:32.761Z,22.23
2022-10-08T07:59:02.283Z,22.48
2022-10-08T08:01:32.321Z,23.25
2022-10-08T08:04:03.714Z,23.15
2022-10-08T08:06:33.001Z,28.50
2022-10-08T08:09:02.132Z,26.60
2022-10-08T08:11:30.729Z,17.45
2022-10-08T08:13:58.883Z,25.05
2022-10-08T08:16:29.178Z,20.60
2022-10-08T08:19:00.456Z,15.70
2022-10-08T08:21:34.247Z,20.07
2022-10-08T08:24:08.767Z,16.83
2022-10-08T08:26:40.395Z,17.23
2022-10-08T08:29:14.214Z,17.20
2022-10-08T08:31:47.605Z,12.73
2022-10-08T08:34:19.227Z,17.30
2022-10-08T08:36:48.937Z,16.95
2022-10-08T08:39:26.545Z,15.98
2022-10-08T08:41:54.657Z,20.88
2022-10-08T08:44:50.345Z,22.30
2022-10-08T08:47:26.449Z,14.65
2022-10-08T08:50:02.367Z,10.85
2022-10-08T08:52:34.470Z,14.27
2022-10-08T08:58:15.288Z,12.25
2022-10-08T09:04:01.041Z,13.90
2022-10-08T09:06:30.332Z,12.40
2022-10-08T09:09:08.113Z,14.10
2022-10-08T09:11:38.890Z,8.77
2022-10-08T09:14:22.231Z,14.10
2022-10-08T09:16:50.559Z,8.82
2022-10-08T09:19:18.804Z,11.68
2022-10-08T09:21:47.082Z,12.32
2022-10-08T09:24:16.948Z,15.70
2022-10-08T09:26:45.247Z,8.18
2022-10-08T09:29:33.322Z,17.10
2022-10-08T09:32:01.704Z,11.73
2022-10-08T09:34:29.796Z,11.35
2022-10-08T09:37:13.533Z,19.75
2022-10-08T09:40:13.369Z,13.57
2022-10-08T09:42:41.821Z,14.32
2022-10-08T09:45:34.659Z,15.23
2022-10-08T09:48:21.436Z,15.13
2022-10-08T09:50:58.737Z,12.35
2022-10-08T09:53:49.262Z,9.05
2022-10-08T09:56:27.792Z,8.50
2022-10-08T09:59:05.100Z,9.68
2022-10-08T10:01:33.906Z,12.38
2022-10-08T10:04:03.399Z,10.77
2022-10-08T10:06:37.254Z,16.98
2022-10-08T10:09:38.122Z,17.95
2022-10-08T10:12:12.283Z,13.48
2022-10-08T10:14:43.834Z,11.23
2022-10-08T10:17:34.319Z,15.75
2022-10-08T10:20:47.428Z,11.43
2022-10-08T10:23:27.532Z,8.85
2022-10-08T10:26:04.172Z,9.05
2022-10-08T10:28:42.887Z,9.98
2022-10-08T10:31:32.664Z,10.25
2022-10-08T10:34:13.981Z,22.83
2022-10-08T10:37:14.931Z,155.60
2022-10-08T10:40:04.335Z,118.60
2022-10-08T10:42:51.031Z,104.07
2022-10-08T10:45:31.670Z,122.18
2022-10-08T10:48:00.648Z,172.98
2022-10-08T10:50:43.172Z,81.20
2022-10-08T10:53:29.943Z,25.40
2022-10-08T10:56:01.343Z,84.45
2022-10-08T10:59:14.202Z,27.35
2022-10-08T11:01:53.694Z,19.83
2022-10-08T11:04:40.780Z,26.98
2022-10-08T11:07:36.182Z,15.10
2022-10-08T11:10:19.737Z,31.90
2022-10-08T11:13:00.105Z,10.68
2022-10-08T11:15:38.113Z,15.68
2022-10-08T11:18:36.520Z,36.55
2022-10-08T11:21:32.165Z,31.27
2022-10-08T11:24:06.456Z,11.43
2022-10-08T11:26:55.446Z,10.00
2022-10-08T11:29:43.208Z,17.33
2022-10-08T11:32:16.990Z,12.30
2022-10-08T11:34:49.815Z,12.02
2022-10-08T11:37:47.610Z,17.85
2022-10-08T11:40:22.000Z,34.47
2022-10-08T11:43:02.234Z,29.88
2022-10-08T11:45:33.536Z,15.43
2022-10-08T11:48:22.543Z,18.40
2022-10-08T11:50:51.558Z,11.32
2022-10-08T11:53:23.471Z,57.60
2022-10-08T11:56:00.093Z,76.15
2022-10-08T11:58:34.557Z,45.38
2022-10-08T12:01:11.674Z,18.55
2022-10-08T12:03:43.627Z,34.28
2022-10-08T12:08:54.590Z,48.05
2022-10-08T12:11:34.778Z,14.77
2022-10-08T12:14:11.926Z,15.63
2022-10-08T12:17:00.319Z,17.13
2022-10-08T12:19:34.614Z,19.23
2022-10-08T12:22:18.306Z,11.18
2022-10-08T12:24:50.367Z,51.67
2022-10-08T12:27:18.877Z,41.03
2022-10-08T12:30:09.761Z,23.73
2022-10-08T12:32:40.778Z,21.30
2022-10-08T12:35:30.386Z,39.60
2022-10-08T12:38:20.549Z,33.83
2022-10-08T12:40:58.788Z,14.38
2022-10-08T12:43:57.062Z,40.45
2022-10-08T12:46:59.192Z,43.50
2022-10-08T12:49:42.315Z,20.52
2022-10-08T12:52:17.346Z,22.13
2022-10-08T12:55:15.416Z,32.42
2022-10-08T12:57:44.552Z,62.28
2022-10-08T13:00:23.326Z,50.40
2022-10-08T13:03:16.065Z,29.92
2022-10-08T13:05:44.894Z,8.30
2022-10-08T13:08:29.890Z,16.85
2022-10-08T13:11:00.680Z,14.00
2022-10-08T13:13:41.074Z,12.60
2022-10-08T13:16:14.246Z,22.63
2022-10-08T13:18:52.189Z,15.93
2022-10-08T13:21:32.269Z,12.80
2022-10-08T13:24:02.355Z,12.45
2022-10-08T13:26:47.846Z,39.88
2022-10-08T13:29:25.271Z,68.95
2022-10-08T13:32:14.969Z,24.08
2022-10-08T13:34:49.507Z,23.13
2022-10-08T13:37:31.775Z,15.55
2022-10-08T13:40:03.141Z,16.70
2022-10-08T13:42:37.332Z,39.00
2022-10-08T13:45:13.599Z,9.70
2022-10-08T13:47:41.867Z,18.75
2022-10-08T13:50:11.137Z,20.15
2022-10-08T13:52:45.251Z,18.10
2022-10-08T13:55:27.968Z,19.17
2022-10-08T13:57:57.577Z,21.70
2022-10-08T14:00:26.084Z,21.17
2022-10-08T14:02:54.430Z,15.77
2022-10-08T14:05:23.155Z,8.57
2022-10-08T14:07:57.095Z,28.95
2022-10-08T14:10:25.380Z,35.17
2022-10-08T14:12:53.471Z,28.48
2022-10-08T14:15:21.786Z,17.50
2022-10-08T14:17:50.195Z,19.05
2022-10-08T14:20:18.799Z,24.20
2022-10-08T14:22:46.824Z,46.17
2022-10-08T14:25:21.787Z,33.50
2022-10-08T14:27:50.914Z,41.80
2022-10-08T14:30:19.965Z,58.65
2022-10-08T14:32:48.469Z,39.97
2022-10-08T14:35:16.754Z,33.45
2022-10-08T14:37:45.153Z,18.98
2022-10-08T14:40:18.089Z,18.23
2022-10-08T14:42:46.746Z,9.05
2022-10-08T14:45:15.132Z,10.50
2022-10-08T14:47:43.347Z,14.93
2022-10-08T14:50:11.794Z,18.17
2022-10-08T14:52:44.098Z,35.00
2022-10-08T14:55:13.047Z,56.95
2022-10-08T14:57:41.257Z,19.30
2022-10-08T15:00:10.108Z,17.17
2022-10-08T15:02:38.333Z,16.95
2022-10-08T15:05:07.356Z,64.78
2022-10-08T15:07:35.696Z,29.60
2022-10-08T15:10:04.201Z,36.05
2022-10-08T15:12:32.560Z,28.35
2022-10-08T15:15:00.945Z,34.38
2022-10-08T15:17:29.147Z,14.55
2022-10-08T15:19:57.478Z,43.60
2022-10-08T15:22:25.752Z,15.90
2022-10-08T15:24:54.014Z,12.73
2022-10-08T15:27:22.216Z,12.30
2022-10-08T15:29:50.377Z,18.35
2022-10-08T15:32:18.597Z,11.43
2022-10-08T15:34:46.772Z,7.38
2022-10-08T15:37:15.000Z,7.75
2022-10-08T15:39:43.243Z,9.02
2022-10-08T15:42:14.329Z,12.35
2022-10-08T15:44:44.485Z,15.68
2022-10-08T15:47:12.737Z,13.15
2022-10-08T15:49:42.530Z,13.27
2022-10-08T15:52:18.605Z,18.23
2022-10-08T15:54:47.594Z,17.20
2022-10-08T15:57:18.424Z,14.77
2022-10-08T15:59:47.119Z,28.80
2022-10-08T16:02:17.435Z,28.45
2022-10-08T16:04:47.788Z,10.25
2022-10-08T16:07:16.794Z,29.92
2022-10-08T16:09:45.079Z,36.28
2022-10-08T16:12:13.363Z,12.60
2022-10-08T16:14:41.510Z,18.85
2022-10-08T16:17:09.692Z,23.73
2022-10-08T16:19:37.877Z,14.70
2022-10-08T16:22:06.067Z,23.98
2022-10-08T16:24:34.254Z,17.27
2022-10-08T16:27:02.558Z,13.20
2022-10-08T16:29:30.801Z,9.90
2022-10-08T16:31:59.141Z,8.93
2022-10-08T16:34:27.620Z,11.07
2022-10-08T16:36:55.850Z,24.27
2022-10-08T16:39:24.111Z,13.50
2022-10-08T16:41:52.499Z,13.98
2022-10-08T16:44:21.518Z,13.13
2022-10-08T16:46:52.111Z,13.10
2022-10-08T16:49:29.274Z,11.95
2022-10-08T16:52:00.307Z,14.30
2022-10-08T16:54:28.832Z,12.43
2022-10-08T16:56:57.440Z,15.07
2022-10-08T16:59:28.140Z,11.57
2022-10-08T17:01:58.679Z,24.13
2022-10-08T17:04:28.985Z,26.60
2022-10-08T17:06:57.356Z,17.80
2022-10-08T17:09:25.578Z,16.83
2022-10-08T17:11:53.889Z,27.67
2022-10-08T17:14:21.957Z,31.10
2022-10-08T17:16:50.537Z,19.92
2022-10-08T17:19:19.357Z,21.27
2022-10-08T17:21:47.419Z,31.75
2022-10-08T17:24:15.850Z,23.27
2022-10-08T17:26:44.164Z,18.55
2022-10-08T17:29:13.279Z,18.42
2022-10-08T17:31:42.313Z,21.27
2022-10-08T17:34:11.160Z,28.80
2022-10-08T17:36:41.179Z,15.35
2022-10-08T17:39:13.299Z,22.55
2022-10-08T17:41:42.944Z,35.10
2022-10-08T17:44:11.883Z,24.02
2022-10-08T17:46:45.502Z,12.77
2022-10-08T17:49:15.818Z,35.72
2022-10-08T17:51:44.848Z,27.00
2022-10-08T17:54:15.495Z,20.85
2022-10-08T17:56:44.168Z,60.00
2022-10-08T17:59:17.278Z,14.40
2022-10-08T18:01:46.036Z,17.60
2022-10-08T18:04:16.577Z,34.33
2022-10-08T18:06:46.329Z,19.10
2022-10-08T18:09:18.174Z,16.23
2022-10-08T18:11:49.277Z,64.32
2022-10-08T18:14:17.801Z,29.27
2022-10-08T18:16:48.338Z,29.52
2022-10-08T18:19:17.219Z,13.32
2022-10-08T18:21:45.796Z,25.85
2022-10-08T18:24:14.484Z,40.67
2022-10-08T18:26:42.779Z,26.67
2022-10-08T18:29:13.213Z,20.55
2022-10-08T18:31:42.815Z,26.77
2022-10-08T18:34:14.993Z,24.77
2022-10-08T18:36:44.060Z,26.50
2022-10-08T18:39:22.533Z,23.42
2022-10-08T18:41:55.620Z,20.52
2022-10-08T18:44:25.812Z,20.83
2022-10-08T18:46:54.310Z,30.92
2022-10-08T18:49:23.556Z,49.90
2022-10-08T18:51:51.869Z,25.20
2022-10-08T18:54:20.036Z,30.92
2022-10-08T18:56:48.336Z,20.70
2022-10-08T18:59:17.990Z,29.58
2022-10-08T19:01:47.975Z,45.45
2022-10-08T19:04:19.889Z,58.38
2022-10-08T19:06:49.960Z,71.20
2022-10-08T19:09:18.401Z,55.72
2022-10-08T19:11:49.885Z,39.10
2022-10-08T19:14:19.965Z,45.08
2022-10-08T19:16:48.157Z,61.40
2022-10-08T19:19:21.531Z,48.78
2022-10-08T19:21:50.555Z,45.42
2022-10-08T19:24:24.270Z,35.03
2022-10-08T19:26:53.578Z,29.45
2022-10-08T19:29:24.291Z,19.90
2022-10-08T19:31:52.621Z,34.53
2022-10-08T19:34:23.400Z,35.88
2022-10-08T19:36:52.117Z,40.58
2022-10-08T19:39:26.293Z,30.63
2022-10-08T19:41:55.029Z,44.83
2022-10-08T19:44:23.201Z,33.00
2022-10-08T19:46:51.470Z,24.23
2022-10-08T19:49:19.908Z,28.48
2022-10-08T19:51:48.153Z,47.15
2022-10-08T19:54:17.220Z,60.17
2022-10-08T19:56:45.294Z,61.40
2022-10-08T19:59:13.946Z,80.20
2022-10-08T20:01:43.506Z,79.15
2022-10-08T20:04:11.932Z,75.90
2022-10-08T20:06:42.122Z,67.03
2022-10-08T20:09:12.980Z,57.75
2022-10-08T20:11:42.818Z,56.10
2022-10-08T20:14:12.187Z,57.05
2022-10-08T20:16:42.145Z,42.22
2022-10-08T20:19:21.620Z,58.42
2022-10-08T20:21:50.868Z,66.60
2022-10-08T20:24:20.009Z,81.03
2022-10-08T20:26:48.849Z,47.33
2022-10-08T20:29:30.703Z,53.47
2022-10-08T20:31:59.314Z,57.85
2022-10-08T20:34:28.838Z,31.52
2022-10-08T20:36:57.519Z,27.40
2022-10-08T20:39:25.782Z,21.40
2022-10-08T20:41:53.959Z,14.35
2022-10-08T20:44:22.596Z,30.33
2022-10-08T20:46:51.422Z,23.40
2022-10-08T20:49:19.963Z,47.08
2022-10-08T20:51:48.276Z,30.02
2022-10-08T20:54:17.538Z,35.83
2022-10-08T20:56:45.879Z,118.80
2022-10-08T20:59:18.926Z,41.00
2022-10-08T21:01:49.576Z,17.35
2022-10-08T21:04:18.404Z,46.63
2022-10-08T21:06:49.376Z,40.60
2022-10-08T21:09:19.566Z,44.08
2022-10-08T21:11:48.231Z,45.20
2022-10-08T21:14:18.925Z,38.60
2022-10-08T21:16:47.357Z,34.97
2022-10-08T21:19:20.841Z,44.78
2022-10-08T21:21:49.352Z,32.30
2022-10-08T21:24:17.550Z,33.33
2022-10-08T21:26:45.982Z,26.30
2022-10-08T21:29:15.451Z,21.80
2022-10-08T21:31:44.265Z,27.35
2022-10-08T21:34:13.717Z,33.72
2022-10-08T21:36:42.433Z,36.53
2022-10-08T21:39:16.294Z,44.67
2022-10-08T21:41:45.077Z,45.05
2022-10-08T21:44:13.543Z,35.33
2022-10-08T21:46:43.127Z,30.15
2022-10-08T21:49:17.572Z,36.35
2022-10-08T21:51:45.987Z,30.48
2022-10-08T21:54:14.753Z,21.80
2022-10-08T21:56:46.837Z,13.68
2022-10-08T22:01:51.736Z,21.75
2022-10-08T22:04:25.311Z,18.65
2022-10-08T22:06:56.120Z,33.85
2022-10-08T22:09:27.228Z,35.00
2022-10-08T22:11:56.252Z,32.13
2022-10-08T22:14:25.155Z,40.63
2022-10-08T22:16:53.787Z,35.78
2022-10-08T22:19:22.149Z,34.22
2022-10-08T22:21:50.343Z,28.90
2022-10-08T22:24:18.721Z,25.67
2022-10-08T22:26:48.447Z,20.08
2022-10-08T22:29:17.110Z,19.27
2022-10-08T22:31:46.001Z,19.10
2022-10-08T22:34:14.271Z,18.88
2022-10-08T22:36:44.328Z,22.13
2022-10-08T22:39:13.383Z,20.38
2022-10-08T22:41:41.514Z,25.85
2022-10-08T22:44:09.907Z,18.88
2022-10-08T22:46:40.039Z,22.88
2022-10-08T22:49:10.667Z,18.88
2022-10-08T22:51:39.676Z,18.85
2022-10-08T22:54:08.021Z,17.27
2022-10-08T22:56:36.337Z,30.00
2022-10-08T22:59:04.645Z,28.27
2022-10-08T23:01:33.035Z,25.02
2022-10-08T23:04:01.148Z,17.13
2022-10-08T23:06:31.798Z,23.30
2022-10-08T23:09:06.734Z,21.50
2022-10-08T23:11:35.378Z,31.05
2022-10-08T23:14:04.015Z,21.10
2022-10-08T23:16:34.037Z,16.08
2022-10-08T23:19:04.912Z,19.55
2022-10-08T23:21:34.113Z,19.42
2022-10-08T23:24:02.510Z,22.30
2022-10-08T23:26:31.175Z,18.17
2022-10-08T23:29:01.204Z,21.20
2022-10-08T23:31:32.115Z,25.02
2022-10-08T23:34:01.364Z,23.58
2022-10-08T23:36:34.646Z,23.73
2022-10-08T23:39:03.074Z,22.80
2022-10-08T23:41:31.288Z,20.02
2022-10-08T23:43:59.621Z,16.38
2022-10-08T23:46:30.258Z,26.92
2022-10-08T23:48:59.851Z,30.80
2022-10-08T23:51:29.204Z,24.50
2022-10-08T23:53:57.618Z,23.58
2022-10-08T23:56:25.869Z,23.20
2022-10-08T23:58:54.181Z,20.60
